createdAt,value
2023-02-17T00:01:15.593Z,27.83
2023-02-17T00:03:42.319Z,26.97
2023-02-17T00:06:11.139Z,27.63
2023-02-17T00:08:37.846Z,27.43
2023-02-17T00:11:04.632Z,26.23
2023-02-17T00:13:31.139Z,25.63
2023-02-17T00:15:57.598Z,26.00
2023-02-17T00:18:24.385Z,27.50
2023-02-17T00:20:51.312Z,26.93
2023-02-17T00:23:18.105Z,24.93
2023-02-17T00:25:44.533Z,26.27
2023-02-17T00:28:11.042Z,25.87
2023-02-17T00:30:38.150Z,23.77
2023-02-17T00:33:04.723Z,24.13
2023-02-17T00:35:31.112Z,25.87
2023-02-17T00:37:58.093Z,25.37
2023-02-17T00:40:24.576Z,24.60
2023-02-17T00:42:50.956Z,26.73
2023-02-17T00:45:17.710Z,26.87
2023-02-17T00:47:44.455Z,25.40
2023-02-17T00:50:10.879Z,24.23
2023-02-17T00:52:37.433Z,23.47
2023-02-17T00:55:04.030Z,23.83
2023-02-17T00:57:32.364Z,24.10
2023-02-17T00:59:59.016Z,26.00
2023-02-17T01:02:25.426Z,25.07
2023-02-17T01:04:51.901Z,27.53
2023-02-17T01:07:18.263Z,28.07
2023-02-17T01:09:44.819Z,27.20
2023-02-17T01:12:12.387Z,26.93
2023-02-17T01:14:39.711Z,27.43
2023-02-17T01:17:06.143Z,28.63
2023-02-17T01:19:32.567Z,26.50
2023-02-17T01:21:58.960Z,28.10
2023-02-17T01:24:25.325Z,26.87
2023-02-17T01:26:51.727Z,25.90
2023-02-17T01:29:18.340Z,27.33
2023-02-17T01:31:44.830Z,27.33
2023-02-17T01:34:11.669Z,24.23
2023-02-17T01:36:38.482Z,26.37
2023-02-17T01:39:04.888Z,28.20
2023-02-17T01:41:31.286Z,27.40
2023-02-17T01:44:09.855Z,27.30
2023-02-17T01:46:37.084Z,26.03
2023-02-17T01:49:09.855Z,26.63
2023-02-17T01:51:38.808Z,26.87
2023-02-17T01:54:15.448Z,24.43
2023-02-17T01:56:44.529Z,28.83
2023-02-17T01:59:17.369Z,26.97
2023-02-17T02:01:44.073Z,27.83
2023-02-17T02:04:11.786Z,27.20
2023-02-17T02:06:41.641Z,28.87
2023-02-17T02:09:20.793Z,29.83
2023-02-17T02:11:51.443Z,29.23
2023-02-17T02:14:21.366Z,28.47
2023-02-17T02:17:22.573Z,30.60
2023-02-17T02:20:27.949Z,27.13
2023-02-17T02:23:30.569Z,28.93
2023-02-17T02:26:22.122Z,30.10
2023-02-17T02:29:21.047Z,28.20
2023-02-17T02:32:21.536Z,29.80
2023-02-17T02:34:51.587Z,27.90
2023-02-17T02:37:36.114Z,29.10
2023-02-17T02:40:07.971Z,28.40
2023-02-17T02:42:35.238Z,28.53
2023-02-17T02:45:02.037Z,27.50
2023-02-17T02:47:49.087Z,30.13
2023-02-17T02:50:25.686Z,29.83
2023-02-17T02:53:04.515Z,30.80
2023-02-17T02:55:53.148Z,31.20
2023-02-17T02:58:41.272Z,28.53
2023-02-17T03:01:26.594Z,30.87
2023-02-17T03:03:59.457Z,30.53
2023-02-17T03:06:39.284Z,29.27
2023-02-17T03:09:12.016Z,28.80
2023-02-17T03:11:40.510Z,31.37
2023-02-17T03:14:13.177Z,27.83
2023-02-17T03:16:41.660Z,30.40
2023-02-17T03:19:10.651Z,32.13
2023-02-17T03:21:46.623Z,29.07
2023-02-17T03:24:13.077Z,28.00
2023-02-17T03:26:39.510Z,28.33
2023-02-17T03:29:05.981Z,30.50
2023-02-17T03:31:32.763Z,29.77
2023-02-17T03:33:59.549Z,31.13
2023-02-17T03:36:26.380Z,29.33
2023-02-17T03:38:52.873Z,30.70
2023-02-17T03:41:19.612Z,30.20
2023-02-17T03:43:46.004Z,31.73
2023-02-17T03:46:14.759Z,30.77
2023-02-17T03:48:41.205Z,28.83
2023-02-17T03:51:22.208Z,30.33
2023-02-17T03:53:49.903Z,29.83
2023-02-17T03:56:16.701Z,30.17
2023-02-17T03:58:43.358Z,30.43
2023-02-17T04:01:11.654Z,31.90
2023-02-17T04:03:39.150Z,29.77
2023-02-17T04:06:07.485Z,28.97
2023-02-17T04:08:34.211Z,31.53
2023-02-17T04:11:02.312Z,30.87
2023-02-17T04:13:29.113Z,30.27
2023-02-17T04:15:56.111Z,31.07
2023-02-17T04:18:23.107Z,31.00
2023-02-17T04:20:50.815Z,28.57
2023-02-17T04:23:18.007Z,29.90
2023-02-17T04:25:45.087Z,29.80
2023-02-17T04:28:12.606Z,31.03
2023-02-17T04:30:39.406Z,29.83
2023-02-17T04:33:05.973Z,29.23
2023-02-17T04:35:32.553Z,31.47
2023-02-17T04:37:59.070Z,30.87
2023-02-17T04:40:25.491Z,31.33
2023-02-17T04:42:51.895Z,29.77
2023-02-17T04:45:18.715Z,31.50
2023-02-17T04:47:45.160Z,30.70
2023-02-17T04:50:12.149Z,31.93
2023-02-17T04:52:38.899Z,32.90
2023-02-17T04:55:06.638Z,31.00
2023-02-17T04:57:33.161Z,32.57
2023-02-17T04:59:59.725Z,31.67
2023-02-17T05:02:26.939Z,33.47
2023-02-17T05:04:53.968Z,31.77
2023-02-17T05:07:21.011Z,31.30
2023-02-17T05:09:47.431Z,28.13
2023-02-17T05:12:13.843Z,33.03
2023-02-17T05:14:40.226Z,31.97
2023-02-17T05:17:06.980Z,33.20
2023-02-17T05:19:33.510Z,32.40
2023-02-17T05:22:00.293Z,33.60
2023-02-17T05:24:26.797Z,32.67
2023-02-17T05:26:53.243Z,33.70
2023-02-17T05:29:19.709Z,32.87
2023-02-17T05:31:47.138Z,31.57
2023-02-17T05:34:13.599Z,31.43
2023-02-17T05:36:40.120Z,31.60
2023-02-17T05:39:06.523Z,30.33
2023-02-17T05:41:33.334Z,32.53
2023-02-17T05:43:59.761Z,31.33
2023-02-17T05:46:26.199Z,32.27
2023-02-17T05:48:52.603Z,32.20
2023-02-17T05:51:18.988Z,33.57
2023-02-17T05:53:45.464Z,32.13
2023-02-17T05:56:12.003Z,32.33
2023-02-17T05:58:38.486Z,32.33
2023-02-17T06:01:11.839Z,33.93
2023-02-17T06:03:39.063Z,34.37
2023-02-17T06:06:07.435Z,32.17
2023-02-17T06:08:35.215Z,32.77
2023-02-17T06:11:01.988Z,29.97
2023-02-17T06:13:28.443Z,29.00
2023-02-17T06:15:54.895Z,32.03
2023-02-17T06:18:21.319Z,33.13
2023-02-17T06:20:47.716Z,30.77
2023-02-17T06:23:14.161Z,32.77
2023-02-17T06:25:40.551Z,34.13
2023-02-17T06:28:07.612Z,34.37
2023-02-17T06:30:34.115Z,35.57
2023-02-17T06:33:00.563Z,33.27
2023-02-17T06:35:27.015Z,33.23
2023-02-17T06:37:53.444Z,31.77
2023-02-17T06:40:20.177Z,31.83
2023-02-17T06:42:46.630Z,33.27
2023-02-17T06:45:13.218Z,33.60
2023-02-17T06:47:39.597Z,33.13
2023-02-17T06:50:06.928Z,31.83
2023-02-17T06:52:33.309Z,32.33
2023-02-17T06:54:59.729Z,34.23
2023-02-17T06:57:26.269Z,34.27
2023-02-17T06:59:53.157Z,34.47
2023-02-17T07:02:19.688Z,33.63
2023-02-17T07:04:46.138Z,35.63
2023-02-17T07:07:12.950Z,33.70
2023-02-17T07:09:39.985Z,32.40
2023-02-17T07:12:07.024Z,31.97
2023-02-17T07:14:34.714Z,33.00
2023-02-17T07:17:02.630Z,34.10
2023-02-17T07:19:29.107Z,34.53
2023-02-17T07:21:55.631Z,30.23
2023-02-17T07:24:22.593Z,32.17
2023-02-17T07:26:48.989Z,33.80
2023-02-17T07:29:15.501Z,34.30
2023-02-17T07:31:41.884Z,30.83
2023-02-17T07:34:08.326Z,33.53
2023-02-17T07:36:34.834Z,34.57
2023-02-17T07:39:03.416Z,33.73
2023-02-17T07:41:30.667Z,32.00
2023-02-17T07:43:58.332Z,32.60
2023-02-17T07:46:25.367Z,33.40
2023-02-17T07:48:52.022Z,34.13
2023-02-17T07:51:21.933Z,31.97
2023-02-17T07:53:50.438Z,33.63
2023-02-17T07:56:19.399Z,32.43
2023-02-17T07:58:46.242Z,33.40
2023-02-17T08:01:21.410Z,32.97
2023-02-17T08:03:48.630Z,31.60
2023-02-17T08:06:17.545Z,32.83
2023-02-17T08:09:03.132Z,31.87
2023-02-17T08:11:49.909Z,32.70
2023-02-17T08:14:17.038Z,31.70
2023-02-17T08:16:43.597Z,34.33
2023-02-17T08:19:10.055Z,33.20
2023-02-17T08:21:36.480Z,34.03
2023-02-17T08:24:03.028Z,32.80
2023-02-17T08:26:29.750Z,33.90
2023-02-17T08:28:56.463Z,33.80
2023-02-17T08:31:26.390Z,34.83
2023-02-17T08:33:53.014Z,35.57
2023-02-17T08:36:22.144Z,33.63
2023-02-17T08:38:51.154Z,34.43
2023-02-17T08:41:29.017Z,33.27
2023-02-17T08:43:56.832Z,33.63
2023-02-17T08:46:23.686Z,32.37
2023-02-17T08:48:50.616Z,32.77
2023-02-17T08:51:23.748Z,31.93
2023-02-17T08:53:51.163Z,32.03
2023-02-17T08:56:17.573Z,33.57
2023-02-17T08:58:44.014Z,31.50
2023-02-17T09:01:10.560Z,33.13
2023-02-17T09:03:38.235Z,32.20
2023-02-17T09:06:05.951Z,33.20
2023-02-17T09:08:32.929Z,32.50
2023-02-17T09:10:59.686Z,31.67
2023-02-17T09:13:26.994Z,30.73
2023-02-17T09:15:54.370Z,31.23
2023-02-17T09:18:21.442Z,29.83
2023-02-17T09:20:48.268Z,31.20
2023-02-17T09:23:15.361Z,32.80
2023-02-17T09:25:44.049Z,30.73
2023-02-17T09:28:10.949Z,31.33
2023-02-17T09:30:37.563Z,31.57
2023-02-17T09:33:05.392Z,32.43
2023-02-17T09:35:33.284Z,30.73
2023-02-17T09:38:00.692Z,28.30
2023-02-17T09:40:49.323Z,28.33
2023-02-17T09:43:26.360Z,28.63
2023-02-17T09:46:02.327Z,29.70
2023-02-17T09:48:32.181Z,31.10
2023-02-17T09:51:06.754Z,29.70
2023-02-17T09:53:42.857Z,27.37
2023-02-17T09:56:15.035Z,27.30
2023-02-17T09:58:51.248Z,25.80
2023-02-17T10:01:20.942Z,25.50
2023-02-17T10:03:57.267Z,26.67
2023-02-17T10:06:29.461Z,18.77
2023-02-17T10:09:14.000Z,10.30
2023-02-17T10:11:53.350Z,8.43
2023-02-17T10:14:30.578Z,6.53
2023-02-17T10:17:24.752Z,6.50
2023-02-17T10:20:23.718Z,6.07
2023-02-17T10:22:55.651Z,6.20
2023-02-17T10:25:48.740Z,5.93
2023-02-17T10:28:36.755Z,6.00
2023-02-17T10:31:09.502Z,5.60
2023-02-17T10:33:38.583Z,5.60
2023-02-17T10:36:11.708Z,5.10
2023-02-17T10:39:16.450Z,4.60
2023-02-17T10:41:46.839Z,5.13
2023-02-17T10:44:18.132Z,4.80
2023-02-17T10:46:45.366Z,4.20
2023-02-17T10:49:23.377Z,4.20
2023-02-17T10:51:50.100Z,4.20
2023-02-17T10:54:32.689Z,3.90
2023-02-17T10:57:03.530Z,4.27
2023-02-17T10:59:35.352Z,4.57
2023-02-17T11:02:42.414Z,4.40
2023-02-17T11:05:19.783Z,4.53
2023-02-17T11:07:46.406Z,4.33
2023-02-17T11:10:29.880Z,4.80
2023-02-17T11:12:59.296Z,4.00
2023-02-17T11:15:36.544Z,4.97
2023-02-17T11:18:11.495Z,4.43
2023-02-17T11:20:38.459Z,4.17
2023-02-17T11:23:22.977Z,4.13
2023-02-17T11:25:59.363Z,4.50
2023-02-17T11:28:26.712Z,3.80
2023-02-17T11:30:56.060Z,4.00
2023-02-17T11:33:32.729Z,3.97
2023-02-17T11:35:59.861Z,4.03
2023-02-17T11:38:32.770Z,4.13
2023-02-17T11:41:00.317Z,3.77
2023-02-17T11:43:28.677Z,4.07
2023-02-17T11:46:20.981Z,3.87
2023-02-17T11:49:03.032Z,3.63
2023-02-17T11:51:41.386Z,3.40
2023-02-17T11:54:56.074Z,3.90
2023-02-17T11:57:47.962Z,3.57
2023-02-17T12:00:20.508Z,3.30
2023-02-17T12:03:01.885Z,2.97
2023-02-17T12:06:06.993Z,3.10
2023-02-17T12:08:38.934Z,3.23
2023-02-17T12:11:17.752Z,3.07
2023-02-17T12:13:59.321Z,3.20
2023-02-17T12:17:03.678Z,3.30
2023-02-17T12:19:48.740Z,2.87
2023-02-17T12:22:29.467Z,2.80
2023-02-17T12:25:18.544Z,3.40
2023-02-17T12:27:59.992Z,3.27
2023-02-17T12:30:42.463Z,2.67
2023-02-17T12:33:29.786Z,3.33
2023-02-17T12:36:02.147Z,2.90
2023-02-17T12:38:39.650Z,3.00
2023-02-17T12:41:22.560Z,2.43
2023-02-17T12:43:58.112Z,2.87
2023-02-17T12:46:32.534Z,3.03
2023-02-17T12:49:24.324Z,2.70
2023-02-17T12:52:08.249Z,2.40
2023-02-17T12:54:43.470Z,2.77
2023-02-17T12:57:24.904Z,2.60
2023-02-17T12:59:53.632Z,2.90
2023-02-17T13:02:24.938Z,2.70
2023-02-17T13:04:54.320Z,2.93
2023-02-17T13:07:43.552Z,3.07
2023-02-17T13:10:27.153Z,2.97
2023-02-17T13:13:03.566Z,2.57
2023-02-17T13:15:42.958Z,2.77
2023-02-17T13:18:25.000Z,3.00
2023-02-17T13:21:22.745Z,3.00
2023-02-17T13:24:08.966Z,2.67
2023-02-17T13:26:43.853Z,2.83
2023-02-17T13:29:21.915Z,3.20
2023-02-17T13:32:00.316Z,3.10
2023-02-17T13:34:42.241Z,3.07
2023-02-17T13:37:26.511Z,3.20
2023-02-17T13:39:53.283Z,2.93
2023-02-17T13:42:40.153Z,2.90
2023-02-17T13:45:40.787Z,3.13
2023-02-17T13:48:19.875Z,3.40
2023-02-17T13:50:58.490Z,3.93
2023-02-17T13:53:38.056Z,3.07
2023-02-17T13:56:24.037Z,3.40
2023-02-17T13:58:51.259Z,2.80
2023-02-17T14:01:21.647Z,3.30
2023-02-17T14:03:54.204Z,2.87
2023-02-17T14:06:40.430Z,3.17
2023-02-17T14:09:34.671Z,3.33
2023-02-17T14:12:04.171Z,3.43
2023-02-17T14:14:39.124Z,3.30
2023-02-17T14:17:32.712Z,4.00
2023-02-17T14:20:00.757Z,3.07
2023-02-17T14:22:33.140Z,3.23
2023-02-17T14:25:05.593Z,3.50
2023-02-17T14:27:49.494Z,3.63
2023-02-17T14:30:38.317Z,3.30
2023-02-17T14:33:16.967Z,3.50
2023-02-17T14:35:52.135Z,3.37
2023-02-17T14:38:22.343Z,3.60
2023-02-17T14:40:49.319Z,3.60
2023-02-17T14:43:15.709Z,3.20
2023-02-17T14:45:42.276Z,2.90
2023-02-17T14:48:08.827Z,3.20
2023-02-17T14:50:42.273Z,2.80
2023-02-17T14:53:13.054Z,2.93
2023-02-17T14:56:06.668Z,3.00
2023-02-17T14:58:33.417Z,2.77
2023-02-17T15:01:00.601Z,2.90
2023-02-17T15:03:27.345Z,3.17
2023-02-17T15:05:54.546Z,3.37
2023-02-17T15:08:28.322Z,3.43
2023-02-17T15:10:54.963Z,3.40
2023-02-17T15:13:22.430Z,3.47
2023-02-17T15:15:49.664Z,3.37
2023-02-17T15:18:18.371Z,3.23
2023-02-17T15:20:49.510Z,3.50
2023-02-17T15:23:22.354Z,3.60
2023-02-17T15:25:48.901Z,3.30
2023-02-17T15:28:19.823Z,3.40
2023-02-17T15:30:51.525Z,3.70
2023-02-17T15:33:18.504Z,3.27
2023-02-17T15:35:46.028Z,3.50
2023-02-17T15:38:13.651Z,3.40
2023-02-17T15:40:41.948Z,3.43
2023-02-17T15:43:15.455Z,3.73
2023-02-17T15:45:42.053Z,3.47
2023-02-17T15:48:34.689Z,3.50
2023-02-17T15:51:01.064Z,3.27
2023-02-17T15:53:32.311Z,3.33
2023-02-17T15:56:01.273Z,3.80
2023-02-17T15:58:28.964Z,3.40
2023-02-17T16:01:01.512Z,3.53
2023-02-17T16:03:28.137Z,3.53
2023-02-17T16:05:54.574Z,3.40
2023-02-17T16:08:20.953Z,3.70
2023-02-17T16:10:50.144Z,3.63
2023-02-17T16:13:19.458Z,3.57
2023-02-17T16:15:48.806Z,2.93
2023-02-17T16:18:23.035Z,3.60
2023-02-17T16:20:51.288Z,3.37
2023-02-17T16:23:18.076Z,3.30
2023-02-17T16:25:46.185Z,3.20
2023-02-17T16:28:16.730Z,3.00
2023-02-17T16:30:43.602Z,4.50
2023-02-17T16:33:11.612Z,3.50
2023-02-17T16:35:38.644Z,3.27
2023-02-17T16:38:07.792Z,3.10
2023-02-17T16:40:36.244Z,3.03
2023-02-17T16:43:03.837Z,3.10
2023-02-17T16:45:32.103Z,3.03
2023-02-17T16:48:00.095Z,3.00
2023-02-17T16:50:30.665Z,2.77
2023-02-17T16:52:59.988Z,2.80
2023-02-17T16:55:32.512Z,2.43
2023-02-17T16:57:59.396Z,2.73
2023-02-17T17:00:29.619Z,2.63
2023-02-17T17:02:59.380Z,2.60
2023-02-17T17:05:28.262Z,3.13
2023-02-17T17:07:55.465Z,3.23
2023-02-17T17:10:24.858Z,2.80
2023-02-17T17:12:51.399Z,2.37
2023-02-17T17:15:18.817Z,2.50
2023-02-17T17:17:58.864Z,2.37
2023-02-17T17:20:31.864Z,2.80
2023-02-17T17:22:59.360Z,2.67
2023-02-17T17:25:27.267Z,2.80
2023-02-17T17:27:53.784Z,2.60
2023-02-17T17:30:24.015Z,2.70
2023-02-17T17:32:50.704Z,2.80
2023-02-17T17:35:17.340Z,2.83
2023-02-17T17:37:43.732Z,2.60
2023-02-17T17:40:19.955Z,2.47
2023-02-17T17:42:46.412Z,2.73
2023-02-17T17:45:14.081Z,2.50
2023-02-17T17:47:41.689Z,3.00
2023-02-17T17:50:13.484Z,2.80
2023-02-17T17:52:39.959Z,2.70
2023-02-17T17:55:06.436Z,2.60
2023-02-17T17:57:32.839Z,2.60
2023-02-17T17:59:59.288Z,2.50
2023-02-17T18:02:25.975Z,2.70
2023-02-17T18:04:52.410Z,2.57
2023-02-17T18:07:18.900Z,2.40
2023-02-17T18:09:45.551Z,2.80
2023-02-17T18:12:16.213Z,2.70
2023-02-17T18:14:43.805Z,2.73
2023-02-17T18:17:12.087Z,2.63
2023-02-17T18:19:39.418Z,2.73
2023-02-17T18:22:06.309Z,2.87
2023-02-17T18:24:32.801Z,2.50
2023-02-17T18:26:59.197Z,2.80
2023-02-17T18:29:25.632Z,3.40
2023-02-17T18:31:52.240Z,3.23
2023-02-17T18:34:18.910Z,3.20
2023-02-17T18:36:45.345Z,3.03
2023-02-17T18:39:11.992Z,2.70
2023-02-17T18:41:38.376Z,3.30
2023-02-17T18:44:05.662Z,2.93
2023-02-17T18:46:37.972Z,2.90
2023-02-17T18:49:04.546Z,2.87
2023-02-17T18:51:31.218Z,3.27
2023-02-17T18:53:59.257Z,2.60
2023-02-17T18:56:28.643Z,2.60
2023-02-17T18:58:55.835Z,2.77
2023-02-17T19:01:28.626Z,2.90
2023-02-17T19:03:55.207Z,2.63
2023-02-17T19:06:24.900Z,2.80
2023-02-17T19:08:52.325Z,2.83
2023-02-17T19:11:20.604Z,2.80
2023-02-17T19:13:47.817Z,2.60
2023-02-17T19:16:16.953Z,2.60
2023-02-17T19:18:44.313Z,2.63
2023-02-17T19:21:10.754Z,2.50
2023-02-17T19:23:37.955Z,2.40
2023-02-17T19:26:07.048Z,2.30
2023-02-17T19:28:35.309Z,2.60
2023-02-17T19:31:02.374Z,2.80
2023-02-17T19:33:28.792Z,2.50
2023-02-17T19:35:55.200Z,2.57
2023-02-17T19:38:21.640Z,2.70
2023-02-17T19:40:48.082Z,2.60
2023-02-17T19:43:14.496Z,2.40
2023-02-17T19:45:40.965Z,2.60
2023-02-17T19:48:07.409Z,2.93
2023-02-17T19:50:33.819Z,2.70
2023-02-17T19:53:00.213Z,2.50
2023-02-17T19:55:26.644Z,2.57
2023-02-17T19:57:53.338Z,2.73
2023-02-17T20:00:19.843Z,2.43
2023-02-17T20:02:46.397Z,2.23
2023-02-17T20:05:12.928Z,2.37
2023-02-17T20:07:39.501Z,2.30
2023-02-17T20:10:10.655Z,2.63
2023-02-17T20:12:37.909Z,2.50
2023-02-17T20:15:05.220Z,2.50
2023-02-17T20:17:31.663Z,2.60
2023-02-17T20:19:58.099Z,2.63
2023-02-17T20:22:24.558Z,2.30
2023-02-17T20:24:50.981Z,2.73
2023-02-17T20:27:17.671Z,2.90
2023-02-17T20:29:44.450Z,2.73
2023-02-17T20:32:10.987Z,2.70
2023-02-17T20:34:41.618Z,2.80
2023-02-17T20:37:09.395Z,2.87
2023-02-17T20:39:36.468Z,2.70
2023-02-17T20:42:03.969Z,2.60
2023-02-17T20:44:30.827Z,2.53
2023-02-17T20:46:57.443Z,2.40
2023-02-17T20:49:25.201Z,2.70
2023-02-17T20:51:51.659Z,2.90
2023-02-17T20:54:18.294Z,2.70
2023-02-17T20:56:47.317Z,2.90
2023-02-17T20:59:14.718Z,2.73
2023-02-17T21:01:41.909Z,2.83
2023-02-17T21:04:09.588Z,2.73
2023-02-17T21:06:39.621Z,2.77
2023-02-17T21:09:08.992Z,2.93
2023-02-17T21:11:35.541Z,2.70
2023-02-17T21:14:01.937Z,2.40
2023-02-17T21:16:30.995Z,2.70
2023-02-17T21:18:58.975Z,2.70
2023-02-17T21:21:27.569Z,2.83
2023-02-17T21:23:55.152Z,2.97
2023-02-17T21:26:22.087Z,2.87
2023-02-17T21:28:48.784Z,2.87
2023-02-17T21:31:16.380Z,2.53
2023-02-17T21:33:43.564Z,2.67
2023-02-17T21:36:13.219Z,2.60
2023-02-17T21:38:40.020Z,2.37
2023-02-17T21:41:10.580Z,2.27
2023-02-17T21:43:56.770Z,2.23
2023-02-17T21:46:24.011Z,2.40
2023-02-17T21:48:53.118Z,2.50
2023-02-17T21:51:19.785Z,2.67
2023-02-17T21:53:46.474Z,2.33
2023-02-17T21:56:13.202Z,2.87
2023-02-17T21:58:39.609Z,2.50
2023-02-17T22:01:07.030Z,2.53
2023-02-17T22:03:33.749Z,2.30
2023-02-17T22:06:00.312Z,2.20
2023-02-17T22:08:26.804Z,2.90
2023-02-17T22:10:53.214Z,2.83
2023-02-17T22:13:19.583Z,2.57
2023-02-17T22:15:46.009Z,2.37
2023-02-17T22:18:12.407Z,2.27
2023-02-17T22:20:44.046Z,2.03
2023-02-17T22:23:10.483Z,2.07
2023-02-17T22:25:41.261Z,1.97
2023-02-17T22:28:10.007Z,1.80
2023-02-17T22:30:36.987Z,1.87
2023-02-17T22:33:04.045Z,1.67
2023-02-17T22:35:30.453Z,1.60
2023-02-17T22:37:58.502Z,1.43
2023-02-17T22:40:25.357Z,1.50
2023-02-17T22:42:51.733Z,1.50
2023-02-17T22:45:18.391Z,1.40
2023-02-17T22:47:44.771Z,1.50
2023-02-17T22:50:11.200Z,1.30
2023-02-17T22:52:37.620Z,1.40
2023-02-17T22:55:04.250Z,1.30
2023-02-17T22:57:30.940Z,1.30
2023-02-17T22:59:57.318Z,1.53
2023-02-17T23:02:23.713Z,1.30
2023-02-17T23:04:50.175Z,1.33
2023-02-17T23:07:16.665Z,1.67
2023-02-17T23:09:43.054Z,1.30
2023-02-17T23:12:09.823Z,1.40
2023-02-17T23:14:39.371Z,1.50
2023-02-17T23:17:12.156Z,1.50
2023-02-17T23:19:39.848Z,1.40
2023-02-17T23:22:16.202Z,1.80
2023-02-17T23:24:47.333Z,1.37
2023-02-17T23:27:14.512Z,1.73
2023-02-17T23:29:41.741Z,1.63
2023-02-17T23:32:08.956Z,1.73
2023-02-17T23:34:35.386Z,1.70
2023-02-17T23:37:02.075Z,1.60
2023-02-17T23:39:28.464Z,1.60
2023-02-17T23:41:55.122Z,1.60
2023-02-17T23:44:21.523Z,1.50
2023-02-17T23:46:48.214Z,1.87
2023-02-17T23:49:17.020Z,1.53
2023-02-17T23:51:44.256Z,1.50
2023-02-17T23:54:10.798Z,1.50
2023-02-17T23:56:38.246Z,1.70
2023-02-17T23:59:05.112Z,1.40
